Time;durP1;ratioP1;P1;durP2;ratioP2;P2;SDS_P1;SDS_P2;PMS_P1;PMS_P2;Temp;Humidity;BMP_temperature;BMP_pressure;BME280_temperature;BME280_humidity;BME280_pressure;Samples;Min_cycle;Max_cycle;Signal;HPM_P1;HPM_P2
2021/12/06 00:02:27;;;;;;;14.50;2.17;;;21.60;99.90;;;;;;5110750;28;20174;-66
2021/12/06 00:04:55;;;;;;;12.93;2.40;;;21.90;99.90;;;;;;5108827;28;20636;-67
2021/12/06 00:07:24;;;;;;;10.97;3.43;;;22.10;99.90;;;;;;5107524;28;20571;-68
2021/12/06 00:09:52;;;;;;;13.27;2.03;;;22.30;99.90;;;;;;5110482;28;20701;-66
2021/12/06 00:12:20;;;;;;;8.60;1.97;;;22.70;99.90;;;;;;5110356;28;20178;-66
2021/12/06 00:14:47;;;;;;;11.63;1.80;;;22.50;99.90;;;;;;5107992;28;20215;-69
2021/12/06 00:17:16;;;;;;;11.80;2.80;;;22.60;99.90;;;;;;5109794;28;20270;-65
2021/12/06 00:19:45;;;;;;;14.13;2.63;;;22.60;99.90;;;;;;5110673;28;20269;-68
2021/12/06 00:22:16;;;;;;;6.40;1.83;;;22.70;99.90;;;;;;5110412;28;20178;-66
2021/12/06 00:24:43;;;;;;;11.50;2.93;;;22.60;99.90;;;;;;5110923;28;20186;-67
2021/12/06 00:27:11;;;;;;;9.27;3.80;;;22.80;99.90;;;;;;5110102;28;20185;-66
2021/12/06 00:29:38;;;;;;;7.17;2.77;;;23.00;99.90;;;;;;5110952;28;20185;-66
2021/12/06 00:32:06;;;;;;;5.77;1.97;;;22.90;99.90;;;;;;5092355;28;20224;-66
2021/12/06 00:34:35;;;;;;;8.70;1.43;;;22.80;99.90;;;;;;5109140;27;20182;-68
2021/12/06 00:37:29;;;;;;;6.80;1.90;;;22.70;99.90;;;;;;5111075;28;20229;-68
2021/12/06 00:40:06;;;;;;;9.23;1.87;;;22.60;99.90;;;;;;5111303;28;20197;-67
2021/12/06 00:42:35;;;;;;;9.73;1.70;;;22.40;99.90;;;;;;5108473;28;20223;-66
2021/12/06 00:45:06;;;;;;;9.40;1.50;;;22.40;99.90;;;;;;5111491;27;20178;-67
2021/12/06 00:47:33;;;;;;;8.93;1.73;;;22.50;99.90;;;;;;5111331;28;20178;-67
2021/12/06 00:50:01;;;;;;;12.00;1.67;;;22.70;99.90;;;;;;5111395;28;20572;-66
2021/12/06 00:52:28;;;;;;;8.90;1.97;;;22.70;99.90;;;;;;5111363;28;20295;-69
2021/12/06 00:54:56;;;;;;;14.47;5.10;;;22.60;99.90;;;;;;5111478;28;20185;-67
2021/12/06 00:57:23;;;;;;;7.17;2.47;;;22.60;99.90;;;;;;5109815;28;20274;-67
2021/12/06 00:59:51;;;;;;;6.23;1.70;;;22.60;99.90;;;;;;5110822;28;20186;-69
2021/12/06 01:02:19;;;;;;;12.17;1.70;;;22.60;99.90;;;;;;5109410;28;20482;-67
2021/12/06 01:04:48;;;;;;;13.70;1.90;;;22.60;99.90;;;;;;5109715;28;20572;-70
2021/12/06 01:07:16;;;;;;;10.33;1.80;;;22.50;99.90;;;;;;5111139;28;20671;-67
2021/12/06 01:09:43;;;;;;;8.90;1.50;;;22.50;99.90;;;;;;5109296;28;20185;-70
2021/12/06 01:12:11;;;;;;;8.37;1.63;;;22.60;99.90;;;;;;5109522;28;20330;-72
2021/12/06 01:14:39;;;;;;;10.47;2.43;;;22.70;99.90;;;;;;5111230;27;20218;-65
2021/12/06 01:17:07;;;;;;;9.37;2.27;;;22.80;99.90;;;;;;5110467;28;20197;-69
2021/12/06 01:19:37;;;;;;;15.20;2.47;;;22.80;99.90;;;;;;5111175;27;20540;-67
2021/12/06 01:22:18;;;;;;;8.83;1.90;;;22.60;99.90;;;;;;5108899;28;20624;-67
2021/12/06 01:24:55;;;;;;;10.07;2.00;;;22.50;99.90;;;;;;5110793;27;20714;-66
2021/12/06 01:28:02;;;;;;;10.37;2.53;;;22.70;99.90;;;;;;5110258;28;20206;-70
2021/12/06 01:30:52;;;;;;;9.33;2.10;;;22.90;99.90;;;;;;5109711;28;20189;-65
2021/12/06 01:33:38;;;;;;;8.87;2.03;;;23.00;99.90;;;;;;5110665;28;20181;-65
2021/12/06 01:41:43;;;;;;;11.07;2.20;;;23.10;99.90;;;;;;5106079;28;20177;-65
2021/12/06 01:44:18;;;;;;;8.10;1.63;;;23.30;99.90;;;;;;5107794;28;20194;-67
2021/12/06 01:46:53;;;;;;;8.10;2.20;;;23.30;99.90;;;;;;5110804;28;20177;-68
2021/12/06 01:49:22;;;;;;;12.13;2.87;;;23.30;99.90;;;;;;5108876;28;20206;-71
2021/12/06 01:55:34;;;;;;;9.10;2.37;;;23.50;99.90;;;;;;5025853;28;20203;-71
2021/12/06 01:58:05;;;;;;;7.53;2.20;;;23.40;99.90;;;;;;5019168;28;20307;-77
2021/12/06 02:00:47;;;;;;;8.67;1.70;;;23.50;99.90;;;;;;5026004;28;20207;-72
2021/12/06 02:03:15;;;;;;;13.70;1.90;;;23.50;99.90;;;;;;5024094;28;20650;-71
2021/12/06 02:05:48;;;;;;;6.93;1.30;;;23.40;99.90;;;;;;5022995;28;20288;-72
2021/12/06 02:08:16;;;;;;;6.23;1.63;;;23.10;99.90;;;;;;5025649;28;20650;-72
2021/12/06 02:10:44;;;;;;;9.17;2.30;;;22.80;99.90;;;;;;5027121;28;20207;-71
2021/12/06 02:13:11;;;;;;;13.53;1.90;;;22.80;99.90;;;;;;5025446;28;20191;-70
2021/12/06 02:18:14;;;;;;;5.43;1.97;;;22.60;99.90;;;;;;5021149;28;20204;-70
2021/12/06 02:20:49;;;;;;;8.67;2.00;;;22.70;99.90;;;;;;5023391;28;20180;-70
2021/12/06 02:23:18;;;;;;;14.70;4.27;;;22.50;99.90;;;;;;5025889;28;20222;-70
2021/12/06 02:26:07;;;;;;;10.53;1.87;;;22.30;99.90;;;;;;5024599;28;20181;-76
2021/12/06 02:28:38;;;;;;;11.03;1.57;;;22.20;99.90;;;;;;5030602;28;20537;-78
2021/12/06 02:31:07;;;;;;;9.23;1.87;;;22.00;99.90;;;;;;5023464;28;20184;-74
2021/12/06 02:33:50;;;;;;;7.23;1.47;;;22.00;99.90;;;;;;5024718;28;20189;-77
2021/12/06 02:36:35;;;;;;;11.93;1.87;;;21.90;99.90;;;;;;5024279;28;20189;-76
2021/12/06 02:39:10;;;;;;;9.53;1.47;;;21.90;99.90;;;;;;5021277;28;20405;-77
2021/12/06 02:41:53;;;;;;;;;;;;;;;;;;;;;
2021/12/06 02:44:38;;;;;;;11.00;1.50;;;21.80;99.90;;;;;;5024057;28;20196;-78
2021/12/06 02:47:13;;;;;;;6.90;1.40;;;21.80;99.90;;;;;;5011447;28;20677;-77
2021/12/06 02:49:41;;;;;;;10.47;2.30;;;21.80;99.90;;;;;;5022987;28;20214;-76
2021/12/06 02:52:09;;;;;;;18.87;1.77;;;21.90;99.90;;;;;;5027784;28;20527;-71
2021/12/06 02:54:41;;;;;;;10.47;1.87;;;21.90;99.90;;;;;;5055648;28;20240;-75
2021/12/06 02:57:21;;;;;;;6.13;1.53;;;22.00;99.90;;;;;;5071146;28;20316;-77
2021/12/06 02:59:58;;;;;;;10.43;1.87;;;22.00;99.90;;;;;;5072647;28;20182;-78
2021/12/06 03:02:59;;;;;;;13.43;1.67;;;22.00;99.90;;;;;;5067919;28;20171;-75
2021/12/06 03:05:30;;;;;;;11.77;2.37;;;22.00;99.90;;;;;;5072462;28;20686;-74
2021/12/06 03:08:32;;;;;;;13.60;2.13;;;21.90;99.90;;;;;;5069264;28;20691;-77
2021/12/06 03:11:33;;;;;;;7.90;1.60;;;22.00;99.90;;;;;;5070926;28;20211;-78
2021/12/06 03:14:04;;;;;;;9.57;1.97;;;22.00;99.90;;;;;;5070161;28;21083;-76
2021/12/06 03:16:38;;;;;;;9.67;1.47;;;21.90;99.90;;;;;;5071196;28;20241;-79
2021/12/06 03:19:09;;;;;;;8.13;1.63;;;21.80;99.90;;;;;;5067940;28;20214;-79
2021/12/06 03:21:37;;;;;;;9.17;1.60;;;21.90;99.90;;;;;;5068592;28;20577;-71
2021/12/06 03:24:05;;;;;;;13.07;1.57;;;21.90;99.90;;;;;;5069516;28;20191;-69
2021/12/06 03:26:34;;;;;;;9.57;1.70;;;21.90;99.90;;;;;;5072067;28;20637;-70
2021/12/06 03:29:03;;;;;;;6.47;1.57;;;21.90;99.90;;;;;;5070222;28;20176;-71
2021/12/06 03:31:31;;;;;;;8.63;1.50;;;21.80;99.90;;;;;;5065972;28;20277;-70
2021/12/06 03:33:59;;;;;;;12.13;2.57;;;21.90;99.90;;;;;;5065340;28;20179;-72
2021/12/06 03:36:29;;;;;;;6.37;1.87;;;21.90;99.90;;;;;;5065719;28;20787;-72
2021/12/06 03:38:58;;;;;;;7.57;1.77;;;21.80;99.90;;;;;;5063389;28;20226;-72
2021/12/06 03:41:27;;;;;;;7.67;1.90;;;21.70;99.90;;;;;;5068412;28;20504;-71
2021/12/06 03:43:55;;;;;;;10.03;1.83;;;21.70;99.90;;;;;;5069575;28;20283;-69
2021/12/06 03:46:24;;;;;;;9.37;2.03;;;21.70;99.90;;;;;;5062818;28;20574;-70
2021/12/06 03:48:52;;;;;;;8.33;1.53;;;21.60;99.90;;;;;;5068984;28;20601;-69
2021/12/06 03:51:19;;;;;;;9.27;1.40;;;21.50;99.90;;;;;;5069591;28;20215;-70
2021/12/06 03:53:47;;;;;;;10.90;1.60;;;21.60;99.90;;;;;;5062688;28;20647;-69
2021/12/06 03:56:14;;;;;;;4.73;1.40;;;21.50;99.90;;;;;;5069566;28;20191;-70
2021/12/06 03:58:44;;;;;;;8.33;1.77;;;21.50;99.90;;;;;;5066483;28;20276;-71
2021/12/06 04:01:12;;;;;;;7.63;1.13;;;21.60;99.90;;;;;;5066931;28;20261;-69
2021/12/06 04:06:35;;;;;;;7.63;1.43;;;21.50;99.90;;;;;;5053068;28;20180;-77
2021/12/06 04:09:10;;;;;;;11.53;1.70;;;21.50;99.90;;;;;;5066967;28;20178;-75
2021/12/06 04:11:38;;;;;;;7.07;1.63;;;21.60;99.90;;;;;;5069183;28;20222;-77
2021/12/06 04:14:18;;;;;;;9.40;1.90;;;21.50;99.90;;;;;;5061654;28;20240;-79
2021/12/06 04:16:46;;;;;;;8.67;1.93;;;21.50;99.90;;;;;;5068619;28;20245;-75
2021/12/06 04:19:14;;;;;;;13.00;1.97;;;21.40;99.90;;;;;;5069796;28;20318;-71
2021/12/06 04:21:43;;;;;;;14.10;1.90;;;21.30;99.90;;;;;;5066314;28;20847;-78
2021/12/06 04:24:12;;;;;;;7.77;1.57;;;21.40;99.90;;;;;;5078240;28;20184;-76
2021/12/06 04:26:40;;;;;;;11.37;2.03;;;21.40;99.90;;;;;;5049667;28;20180;-71
2021/12/06 04:29:08;;;;;;;5.57;1.80;;;21.50;99.90;;;;;;5068468;28;20179;-73
2021/12/06 04:31:39;;;;;;;14.33;1.70;;;21.60;99.90;;;;;;5067243;28;20218;-72
2021/12/06 04:34:07;;;;;;;8.67;1.47;;;21.60;99.90;;;;;;5062183;28;20179;-69
2021/12/06 04:36:35;;;;;;;11.10;1.87;;;21.60;99.90;;;;;;5066187;28;20270;-74
2021/12/06 04:39:04;;;;;;;9.03;1.57;;;21.70;99.90;;;;;;5066914;28;20303;-71
2021/12/06 04:41:32;;;;;;;6.27;1.63;;;21.60;99.90;;;;;;5070199;28;20520;-71
2021/12/06 04:43:59;;;;;;;13.37;1.47;;;21.60;99.90;;;;;;5070381;28;20203;-71
2021/12/06 04:46:26;;;;;;;9.83;1.57;;;21.60;99.90;;;;;;5065009;28;20321;-71
2021/12/06 04:48:55;;;;;;;6.60;1.50;;;21.70;99.90;;;;;;5068094;28;20629;-72
2021/12/06 04:51:22;;;;;;;6.83;1.73;;;21.70;99.90;;;;;;5067834;28;20199;-69
2021/12/06 04:53:51;;;;;;;6.67;1.50;;;21.70;99.90;;;;;;5067408;28;20613;-71
2021/12/06 04:56:28;;;;;;;11.93;1.70;;;21.90;99.90;;;;;;5063140;28;20191;-72
2021/12/06 04:59:06;;;;;;;13.93;2.50;;;21.80;99.90;;;;;;5068547;28;20222;-71
2021/12/06 05:01:34;;;;;;;9.27;1.63;;;21.80;99.90;;;;;;5067112;28;20186;-70
2021/12/06 05:04:07;;;;;;;9.97;1.77;;;21.80;99.90;;;;;;5062863;28;20195;-71
2021/12/06 05:06:37;;;;;;;7.53;2.10;;;21.80;99.90;;;;;;5069220;28;20202;-72
2021/12/06 05:09:16;;;;;;;6.03;1.40;;;21.90;99.90;;;;;;5067237;28;20187;-72
2021/12/06 05:11:45;;;;;;;5.43;2.07;;;22.00;99.90;;;;;;5064313;28;20186;-71
2021/12/06 05:14:13;;;;;;;9.13;1.57;;;22.00;99.90;;;;;;5069117;28;20311;-69
2021/12/06 05:16:40;;;;;;;8.63;1.40;;;22.00;99.90;;;;;;5062500;28;20183;-71
2021/12/06 05:19:08;;;;;;;8.57;1.40;;;21.90;99.90;;;;;;5063397;28;20231;-67
2021/12/06 05:21:36;;;;;;;8.57;1.87;;;21.90;99.90;;;;;;5067054;28;20187;-70
2021/12/06 05:24:06;;;;;;;9.30;1.97;;;22.00;99.90;;;;;;5065271;28;20242;-71
2021/12/06 05:26:34;;;;;;;11.00;1.97;;;22.00;99.90;;;;;;5068576;28;20674;-69
2021/12/06 05:29:02;;;;;;;7.73;1.77;;;22.00;99.90;;;;;;5067979;28;20194;-69
2021/12/06 05:31:33;;;;;;;9.37;1.63;;;22.00;99.90;;;;;;5068352;28;20217;-69
2021/12/06 05:34:07;;;;;;;6.20;1.47;;;22.10;99.90;;;;;;5068989;28;20198;-69
2021/12/06 05:36:34;;;;;;;8.80;2.07;;;22.20;99.90;;;;;;5067153;28;20191;-71
2021/12/06 05:39:06;;;;;;;9.23;1.70;;;22.10;99.90;;;;;;5068415;28;20348;-72
2021/12/06 05:41:34;;;;;;;10.27;1.90;;;22.10;99.90;;;;;;5069427;28;20632;-69
2021/12/06 05:44:03;;;;;;;6.60;1.87;;;22.00;99.90;;;;;;5069007;28;20352;-69
2021/12/06 05:46:31;;;;;;;9.13;2.20;;;21.90;99.90;;;;;;5068836;28;20262;-70
2021/12/06 05:48:58;;;;;;;9.70;1.47;;;21.80;99.90;;;;;;5066993;28;20190;-71
2021/12/06 05:51:26;;;;;;;9.77;1.93;;;21.80;99.90;;;;;;5066303;28;20186;-72
2021/12/06 05:53:53;;;;;;;8.23;1.57;;;21.70;99.90;;;;;;5066869;28;20317;-69
2021/12/06 05:56:22;;;;;;;8.73;2.03;;;21.70;99.90;;;;;;5079181;28;20183;-68
2021/12/06 05:58:49;;;;;;;12.27;2.03;;;21.60;99.90;;;;;;5066795;28;20260;-71
2021/12/06 06:01:16;;;;;;;5.53;1.67;;;21.60;99.90;;;;;;5075919;28;20183;-69
2021/12/06 06:03:44;;;;;;;8.30;2.33;;;21.60;99.90;;;;;;5068692;28;20578;-68
2021/12/06 06:06:11;;;;;;;11.90;1.93;;;21.60;99.90;;;;;;5067404;28;20276;-69
2021/12/06 06:08:39;;;;;;;5.97;1.40;;;21.50;99.90;;;;;;5066783;28;20172;-69
2021/12/06 06:11:06;;;;;;;7.57;1.37;;;21.50;99.90;;;;;;5068255;28;20215;-69
2021/12/06 06:13:34;;;;;;;6.73;1.70;;;21.40;99.90;;;;;;5070136;28;20177;-69
2021/12/06 06:16:02;;;;;;;8.93;1.77;;;21.40;99.90;;;;;;5067946;28;20195;-69
2021/12/06 06:18:29;;;;;;;8.47;1.83;;;21.40;99.90;;;;;;5063588;28;21886;-69
2021/12/06 06:20:57;;;;;;;13.70;1.87;;;21.40;99.90;;;;;;5063754;28;20176;-69
2021/12/06 06:23:26;;;;;;;6.33;1.87;;;21.30;99.90;;;;;;5068616;28;20198;-70
2021/12/06 06:25:53;;;;;;;11.10;2.30;;;21.30;99.90;;;;;;5063339;28;20184;-68
2021/12/06 06:28:21;;;;;;;6.33;1.93;;;21.30;99.90;;;;;;5068733;28;20190;-69
2021/12/06 06:30:48;;;;;;;6.00;1.60;;;21.30;99.90;;;;;;5065718;28;20254;-68
2021/12/06 06:33:15;;;;;;;10.30;2.23;;;21.40;99.90;;;;;;5067198;28;20244;-69
2021/12/06 06:35:43;;;;;;;8.77;1.60;;;21.40;99.90;;;;;;5072036;28;20177;-69
2021/12/06 06:38:10;;;;;;;9.57;3.90;;;21.30;99.90;;;;;;5071872;28;20261;-70
2021/12/06 06:40:38;;;;;;;7.27;3.67;;;21.40;99.90;;;;;;5066826;28;20187;-68
2021/12/06 06:43:05;;;;;;;8.63;2.17;;;21.40;99.90;;;;;;5071366;28;20180;-70
2021/12/06 06:45:33;;;;;;;8.67;2.27;;;21.40;99.90;;;;;;5065942;28;20183;-70
2021/12/06 06:48:01;;;;;;;13.77;1.77;;;21.30;99.90;;;;;;5067553;28;20181;-67
2021/12/06 06:50:28;;;;;;;8.17;1.63;;;21.30;99.90;;;;;;5069031;28;20641;-68
2021/12/06 06:52:56;;;;;;;9.50;1.60;;;21.30;99.90;;;;;;5068690;28;20190;-69
2021/12/06 06:55:24;;;;;;;9.63;2.03;;;21.30;99.90;;;;;;5070212;28;20263;-69
2021/12/06 06:57:52;;;;;;;5.47;1.60;;;21.30;99.90;;;;;;5069433;28;20208;-71
2021/12/06 07:00:25;;;;;;;8.57;1.50;;;21.30;99.90;;;;;;5070998;28;20247;-70
2021/12/06 07:02:52;;;;;;;9.60;1.57;;;21.20;99.90;;;;;;5070037;28;20583;-68
2021/12/06 07:05:20;;;;;;;10.03;1.80;;;21.20;99.90;;;;;;5071408;28;20555;-71
2021/12/06 07:07:48;;;;;;;8.60;1.30;;;21.20;99.90;;;;;;5071950;28;20180;-70
2021/12/06 07:10:15;;;;;;;8.93;1.67;;;21.20;99.90;;;;;;5070391;28;20266;-70
2021/12/06 07:12:48;;;;;;;10.07;1.57;;;21.10;99.90;;;;;;5069281;28;20183;-70
2021/12/06 07:15:23;;;;;;;9.70;2.27;;;21.10;99.90;;;;;;5070588;28;20633;-70
2021/12/06 07:17:52;;;;;;;9.87;3.13;;;21.00;99.90;;;;;;5068809;28;20222;-69
2021/12/06 07:20:21;;;;;;;11.90;2.23;;;20.90;99.90;;;;;;5069636;28;20225;-71
2021/12/06 07:22:51;;;;;;;10.13;2.00;;;21.00;99.90;;;;;;5068189;28;20175;-70
2021/12/06 07:25:21;;;;;;;12.47;1.97;;;21.00;99.90;;;;;;5069610;28;20226;-69
2021/12/06 07:27:49;;;;;;;13.47;3.37;;;21.10;99.90;;;;;;5069090;28;20168;-72
2021/12/06 07:30:19;;;;;;;23.97;5.67;;;21.30;99.90;;;;;;5068430;28;20182;-69
2021/12/06 07:32:47;;;;;;;9.63;3.70;;;21.40;99.90;;;;;;5070072;28;20187;-69
2021/12/06 07:35:15;;;;;;;5.13;1.53;;;21.40;99.90;;;;;;5068147;28;20195;-69
2021/12/06 07:37:43;;;;;;;12.70;1.63;;;21.40;99.90;;;;;;5070243;28;20234;-69
2021/12/06 07:40:13;;;;;;;7.77;1.77;;;21.30;99.90;;;;;;5070972;28;20202;-71
2021/12/06 07:42:41;;;;;;;8.30;1.83;;;21.30;99.90;;;;;;5069840;28;20183;-71
2021/12/06 07:45:11;;;;;;;13.10;2.90;;;21.20;99.90;;;;;;5067407;28;20235;-68
2021/12/06 07:47:39;;;;;;;9.87;2.13;;;21.10;99.90;;;;;;5072572;28;20192;-69
2021/12/06 07:50:09;;;;;;;6.70;1.60;;;21.00;99.90;;;;;;5071944;28;20202;-70
2021/12/06 07:52:37;;;;;;;6.90;1.73;;;20.90;99.90;;;;;;5071954;28;20270;-70
2021/12/06 07:55:11;;;;;;;7.73;1.73;;;20.90;99.90;;;;;;5066960;28;20560;-68
2021/12/06 07:57:39;;;;;;;9.10;2.13;;;20.90;99.90;;;;;;5071908;28;20203;-69
2021/12/06 08:00:10;;;;;;;9.17;1.70;;;20.80;99.90;;;;;;5071679;28;20175;-69
2021/12/06 08:02:38;;;;;;;13.73;4.70;;;20.80;99.90;;;;;;5069124;28;20175;-69
2021/12/06 08:07:52;;;;;;;10.83;1.90;;;20.70;99.90;;;;;;5071757;28;20240;-68
2021/12/06 08:10:19;;;;;;;5.40;1.63;;;20.60;99.90;;;;;;5070414;28;20179;-69
2021/12/06 08:12:47;;;;;;;7.97;1.80;;;20.60;99.90;;;;;;5067518;28;20190;-69
2021/12/06 08:15:14;;;;;;;12.30;1.77;;;20.50;99.90;;;;;;5067905;28;20198;-69
2021/12/06 08:17:42;;;;;;;6.23;1.50;;;20.50;99.90;;;;;;5069797;28;20658;-69
2021/12/06 08:20:10;;;;;;;11.30;1.50;;;20.50;99.90;;;;;;5068954;28;20191;-70
2021/12/06 08:22:38;;;;;;;7.63;1.40;;;20.50;99.90;;;;;;5064901;28;20183;-67
2021/12/06 08:25:08;;;;;;;16.07;2.57;;;20.50;99.90;;;;;;5066703;28;20897;-70
2021/12/06 08:27:35;;;;;;;15.70;1.80;;;20.40;99.90;;;;;;5061750;28;20260;-70
2021/12/06 08:30:05;;;;;;;8.77;1.83;;;20.40;99.90;;;;;;5061830;28;20183;-69
2021/12/06 08:32:32;;;;;;;8.93;2.03;;;20.30;99.90;;;;;;5063073;28;20194;-71
2021/12/06 08:35:00;;;;;;;8.17;1.80;;;20.20;99.90;;;;;;5065783;28;20669;-72
2021/12/06 08:37:27;;;;;;;7.43;1.70;;;20.20;99.90;;;;;;5066007;28;20206;-69
2021/12/06 08:39:55;;;;;;;10.40;2.23;;;20.20;99.90;;;;;;5062169;28;20191;-70
2021/12/06 08:42:23;;;;;;;8.73;2.20;;;20.10;99.90;;;;;;5065306;28;20197;-71
2021/12/06 08:44:50;;;;;;;6.37;1.40;;;20.10;99.90;;;;;;5069979;28;20252;-70
2021/12/06 08:47:18;;;;;;;16.10;2.37;;;20.10;99.90;;;;;;5066466;28;20225;-71
2021/12/06 08:49:46;;;;;;;9.40;2.20;;;20.10;99.90;;;;;;5065124;28;20332;-70
2021/12/06 08:52:14;;;;;;;7.00;1.73;;;20.10;99.90;;;;;;5050710;28;20195;-70
2021/12/06 08:54:42;;;;;;;10.27;2.10;;;20.10;99.90;;;;;;5068834;28;20608;-69
2021/12/06 08:57:09;;;;;;;6.00;1.63;;;20.10;99.90;;;;;;5066726;28;20268;-70
2021/12/06 08:59:37;;;;;;;8.97;1.37;;;20.10;99.90;;;;;;5071123;28;20202;-70
2021/12/06 09:02:05;;;;;;;5.73;1.67;;;20.00;99.90;;;;;;5067430;28;20179;-69
2021/12/06 09:04:37;;;;;;;13.00;2.67;;;20.00;99.90;;;;;;5069585;28;20186;-70
2021/12/06 09:07:12;;;;;;;10.53;1.70;;;20.00;99.90;;;;;;5066886;28;20183;-71
2021/12/06 09:09:49;;;;;;;6.40;1.27;;;20.00;99.90;;;;;;5070060;28;20210;-70
2021/12/06 09:12:20;;;;;;;10.67;1.67;;;20.00;99.90;;;;;;5069349;28;20676;-70
2021/12/06 09:14:48;;;;;;;10.50;1.93;;;19.90;99.90;;;;;;5066134;28;20633;-72
2021/12/06 09:17:16;;;;;;;6.37;1.57;;;19.90;99.90;;;;;;5068230;28;20272;-71
2021/12/06 09:19:44;;;;;;;11.70;1.67;;;19.90;99.90;;;;;;5062251;28;20179;-72
2021/12/06 09:22:12;;;;;;;6.87;1.40;;;19.90;99.90;;;;;;5069667;28;20274;-72
2021/12/06 09:24:40;;;;;;;8.23;1.63;;;20.00;99.90;;;;;;5067431;28;20185;-72
2021/12/06 09:27:09;;;;;;;13.37;1.80;;;19.90;99.90;;;;;;5066312;28;20175;-71
2021/12/06 09:29:37;;;;;;;6.57;1.30;;;20.00;99.90;;;;;;5070349;28;20180;-68
2021/12/06 09:32:10;;;;;;;7.53;1.80;;;19.90;99.90;;;;;;5068300;28;20241;-69
2021/12/06 09:34:41;;;;;;;8.33;1.43;;;19.80;99.90;;;;;;5064434;28;20182;-69
2021/12/06 09:37:08;;;;;;;11.10;2.27;;;19.90;99.90;;;;;;5066941;28;20269;-68
2021/12/06 09:39:37;;;;;;;4.70;1.77;;;19.90;99.90;;;;;;5066895;28;20586;-68
2021/12/06 09:42:05;;;;;;;8.80;2.10;;;19.90;99.90;;;;;;5079562;28;20202;-67
2021/12/06 09:44:32;;;;;;;8.40;1.83;;;19.90;99.90;;;;;;5067947;28;20224;-68
2021/12/06 09:47:01;;;;;;;8.80;1.83;;;19.80;99.90;;;;;;5064606;28;20291;-68
2021/12/06 09:49:28;;;;;;;8.67;1.77;;;19.80;99.90;;;;;;5067027;28;20214;-70
2021/12/06 09:52:01;;;;;;;6.63;1.30;;;19.80;99.90;;;;;;5066033;28;20232;-68
2021/12/06 09:54:36;;;;;;;9.57;1.70;;;19.80;99.90;;;;;;5066605;28;20226;-68
2021/12/06 09:57:07;;;;;;;4.97;1.53;;;19.80;99.90;;;;;;5067934;28;20565;-68
2021/12/06 09:59:36;;;;;;;9.80;1.90;;;19.70;99.90;;;;;;5068666;28;20183;-68
2021/12/06 10:02:08;;;;;;;12.43;2.20;;;19.70;99.90;;;;;;5067954;28;20554;-68
2021/12/06 10:04:39;;;;;;;8.03;1.67;;;19.70;99.90;;;;;;5063616;28;20183;-66
2021/12/06 10:07:09;;;;;;;6.67;1.73;;;19.70;99.90;;;;;;5068008;28;20190;-67
2021/12/06 10:09:38;;;;;;;7.90;1.80;;;19.70;99.90;;;;;;5066080;28;20194;-70
2021/12/06 10:12:07;;;;;;;14.83;2.23;;;19.70;99.90;;;;;;5067618;28;20183;-67
2021/12/06 10:14:36;;;;;;;9.50;1.80;;;19.70;99.90;;;;;;5048354;28;20590;-69
2021/12/06 10:17:06;;;;;;;13.03;2.20;;;19.70;99.90;;;;;;5067659;28;20194;-70
2021/12/06 10:19:34;;;;;;;11.00;2.03;;;19.70;99.90;;;;;;5067260;28;20275;-69
2021/12/06 10:22:02;;;;;;;11.33;2.10;;;19.70;99.90;;;;;;5068144;28;20195;-67
2021/12/06 10:24:32;;;;;;;10.83;1.73;;;19.60;99.90;;;;;;5067288;28;20221;-70
2021/12/06 10:27:18;;;;;;;9.03;1.87;;;19.60;99.90;;;;;;5065700;28;20191;-72
2021/12/06 10:29:59;;;;;;;10.17;1.77;;;19.60;99.90;;;;;;5067515;28;20540;-69
2021/12/06 10:32:32;;;;;;;11.47;2.83;;;19.70;99.90;;;;;;5067182;28;20189;-70
2021/12/06 10:35:11;;;;;;;12.90;2.03;;;19.60;99.90;;;;;;5067296;28;20665;-69
2021/12/06 10:37:46;;;;;;;4.67;1.30;;;19.60;99.90;;;;;;5067096;28;20206;-67
2021/12/06 10:40:35;;;;;;;9.43;1.83;;;19.60;99.90;;;;;;5069472;28;20284;-67
2021/12/06 10:43:05;;;;;;;10.03;1.70;;;19.60;99.90;;;;;;5053404;28;20669;-68
2021/12/06 10:45:42;;;;;;;6.23;2.00;;;19.50;99.90;;;;;;5065987;28;20180;-69
2021/12/06 10:48:27;;;;;;;8.77;1.70;;;19.50;99.90;;;;;;5066241;28;20183;-70
2021/12/06 10:50:55;;;;;;;9.57;1.83;;;19.50;99.90;;;;;;5048037;28;20618;-69
2021/12/06 10:53:24;;;;;;;10.03;1.83;;;19.50;99.90;;;;;;5066989;28;20227;-70
2021/12/06 10:55:54;;;;;;;14.13;4.17;;;19.50;99.90;;;;;;5067824;28;20262;-70
2021/12/06 10:58:25;;;;;;;15.13;4.57;;;19.50;99.90;;;;;;5066809;28;20218;-70
2021/12/06 11:01:09;;;;;;;10.40;2.83;;;19.50;99.90;;;;;;5064694;28;20262;-70
2021/12/06 11:03:47;;;;;;;10.63;4.67;;;19.50;99.90;;;;;;5064175;28;20267;-69
2021/12/06 11:06:24;;;;;;;12.73;2.90;;;19.50;99.90;;;;;;5064674;28;20186;-70
2021/12/06 11:08:55;;;;;;;9.87;2.80;;;19.50;99.90;;;;;;5066606;28;20238;-68
2021/12/06 11:11:31;;;;;;;6.00;2.57;;;19.40;99.90;;;;;;5066863;28;20178;-67
2021/12/06 11:14:02;;;;;;;8.50;2.40;;;19.40;99.90;;;;;;5069769;28;20426;-70
2021/12/06 11:16:35;;;;;;;7.73;2.07;;;19.40;99.90;;;;;;5071673;28;20174;-70
2021/12/06 11:19:25;;;;;;;11.30;2.03;;;19.40;99.90;;;;;;5067461;28;20226;-67
2021/12/06 11:21:55;;;;;;;6.17;1.87;;;19.30;99.90;;;;;;5070825;28;20198;-68
2021/12/06 11:24:28;;;;;;;7.27;1.90;;;19.30;99.90;;;;;;5070772;28;20175;-67
2021/12/06 11:27:05;;;;;;;6.73;1.40;;;19.30;99.90;;;;;;5069208;28;20263;-68
2021/12/06 11:30:12;;;;;;;9.40;1.73;;;19.30;99.90;;;;;;5069236;28;20228;-68
2021/12/06 11:32:43;;;;;;;8.73;2.10;;;19.20;99.90;;;;;;5001876;28;20535;-70
2021/12/06 11:35:14;;;;;;;6.77;1.97;;;19.20;99.90;;;;;;5005555;28;20611;-68
2021/12/06 11:37:54;;;;;;;6.50;2.00;;;19.20;99.90;;;;;;5040737;28;20361;-68
2021/12/06 11:40:27;;;;;;;12.80;2.90;;;19.20;99.90;;;;;;5064195;28;20191;-70
2021/12/06 11:43:03;;;;;;;7.27;2.30;;;19.20;99.90;;;;;;5061958;28;20190;-70
2021/12/06 11:45:32;;;;;;;14.97;3.33;;;19.30;99.90;;;;;;5067309;28;20203;-70
2021/12/06 11:48:09;;;;;;;11.77;2.00;;;19.30;99.90;;;;;;5065695;28;20214;-70
2021/12/06 11:50:43;;;;;;;7.97;1.93;;;19.20;99.90;;;;;;5067643;28;20194;-70
2021/12/06 11:53:11;;;;;;;6.07;2.20;;;19.20;99.90;;;;;;5065460;28;20191;-71
2021/12/06 11:55:46;;;;;;;8.83;2.47;;;19.20;99.90;;;;;;5067130;28;20178;-70
2021/12/06 11:58:31;;;;;;;11.10;2.17;;;19.20;99.90;;;;;;5065617;28;20256;-71
2021/12/06 12:01:08;;;;;;;13.43;2.17;;;19.20;99.90;;;;;;5068048;28;20199;-71
2021/12/06 12:03:36;;;;;;;5.80;1.70;;;19.30;99.90;;;;;;5070943;28;20511;-70
2021/12/06 12:06:20;;;;;;;11.70;1.97;;;19.30;99.90;;;;;;5070130;28;20183;-70
2021/12/06 12:08:48;;;;;;;7.70;2.23;;;19.40;99.90;;;;;;5067281;28;20191;-71
2021/12/06 12:11:16;;;;;;;8.37;1.83;;;19.40;99.90;;;;;;5067740;28;20191;-72
2021/12/06 12:13:43;;;;;;;10.77;1.80;;;19.40;99.90;;;;;;5070096;28;20175;-68
2021/12/06 12:16:13;;;;;;;23.13;4.27;;;19.40;99.90;;;;;;5067138;28;20534;-71
2021/12/06 12:18:42;;;;;;;10.37;2.00;;;19.40;99.90;;;;;;5066910;28;20240;-71
2021/12/06 12:21:10;;;;;;;16.43;2.00;;;19.40;99.90;;;;;;5068460;28;20723;-70
2021/12/06 12:23:38;;;;;;;20.80;11.03;;;19.40;99.90;;;;;;5064684;28;20638;-71
2021/12/06 12:26:20;;;;;;;13.57;3.30;;;19.40;99.90;;;;;;5070840;28;20210;-68
2021/12/06 12:29:11;;;;;;;19.50;4.67;;;19.50;99.90;;;;;;5070893;28;20183;-67
2021/12/06 12:31:40;;;;;;;10.77;1.90;;;19.50;99.90;;;;;;5064418;28;20186;-69
2021/12/06 12:34:08;;;;;;;8.70;2.40;;;19.50;99.90;;;;;;5069399;28;20683;-68
2021/12/06 12:36:35;;;;;;;10.33;2.47;;;19.60;99.90;;;;;;5048861;28;20184;-67
2021/12/06 12:39:03;;;;;;;7.23;1.53;;;19.60;99.90;;;;;;5070468;28;20215;-67
2021/12/06 12:41:33;;;;;;;10.20;2.00;;;19.50;99.90;;;;;;5070416;28;20198;-67
2021/12/06 12:44:10;;;;;;;10.13;2.00;;;19.50;99.90;;;;;;5067207;28;20534;-71
2021/12/06 12:46:41;;;;;;;13.60;2.33;;;19.50;99.90;;;;;;5066039;28;20645;-68
2021/12/06 12:49:15;;;;;;;12.50;1.90;;;19.50;99.90;;;;;;5067075;28;20261;-67
2021/12/06 12:52:02;;;;;;;8.33;1.53;;;19.50;99.90;;;;;;5069636;28;20225;-70
2021/12/06 12:54:31;;;;;;;12.60;1.87;;;19.40;99.90;;;;;;5067377;28;20223;-71
2021/12/06 12:57:14;;;;;;;8.87;1.90;;;19.40;99.90;;;;;;5068530;28;20784;-71
2021/12/06 12:59:50;;;;;;;12.73;2.17;;;19.40;99.90;;;;;;5068756;28;20661;-70
2021/12/06 13:02:38;;;;;;;5.07;1.80;;;19.30;99.90;;;;;;5068519;28;20182;-71
2021/12/06 13:05:10;;;;;;;10.20;1.93;;;19.30;99.90;;;;;;5066720;28;20198;-70
2021/12/06 13:07:41;;;;;;;12.77;3.67;;;19.20;99.90;;;;;;5068839;28;20203;-69
2021/12/06 13:10:53;;;;;;;9.37;2.23;;;19.20;99.90;;;;;;5065663;28;20184;-71
2021/12/06 13:13:31;;;;;;;9.83;2.23;;;19.10;99.90;;;;;;5061625;28;20195;-70
2021/12/06 13:16:07;;;;;;;5.20;1.50;;;19.10;99.90;;;;;;5069583;28;20179;-70
2021/12/06 13:19:01;;;;;;;8.27;2.20;;;19.00;99.90;;;;;;5065888;28;20215;-70
2021/12/06 13:21:48;;;;;;;6.17;1.80;;;19.00;99.90;;;;;;5070236;28;20245;-71
2021/12/06 13:24:18;;;;;;;6.90;1.70;;;19.00;99.90;;;;;;5069443;28;20279;-70